Time;durP1;ratioP1;P1;durP2;ratioP2;P2;SDS_P1;SDS_P2;PMS_P1;PMS_P2;Temp;Humidity;BMP_temperature;BMP_pressure;BME280_temperature;BME280_humidity;BME280_pressure;Samples;Min_cycle;Max_cycle;Signal;HPM_P1;HPM_P2
2022/11/16 00:04:10;;;;;;;18.42;12.95;;;;;;;8.43;100.00;99937.81;12947439;22;20102;-90
2022/11/16 00:09:25;;;;;;;20.73;11.23;;;;;;;9.54;100.00;100055.16;12918316;22;20373;-88
2022/11/16 00:14:33;;;;;;;22.05;12.35;;;;;;;8.35;100.00;99882.59;12923150;22;20000;-88
2022/11/16 00:19:34;;;;;;;18.48;11.77;;;;;;;8.17;100.00;99865.47;12919475;22;20008;-89
2022/11/16 00:24:34;;;;;;;20.02;12.60;;;;;;;7.82;100.00;99759.97;12920534;22;20012;-88
2022/11/16 00:29:35;;;;;;;25.20;13.23;;;;;;;8.77;100.00;99917.47;12919502;22;20000;-88
2022/11/16 00:34:36;;;;;;;19.42;12.98;;;;;;;9.02;100.00;99972.50;12921243;22;20099;-89
2022/11/16 00:39:36;;;;;;;17.95;12.32;;;;;;;7.88;100.00;99769.88;12921992;22;20069;-88
2022/11/16 00:44:37;;;;;;;18.70;13.02;;;;;;;7.84;100.00;99763.28;12944476;22;20015;-91
2022/11/16 00:49:37;;;;;;;22.90;14.05;;;;;;;8.69;100.00;99897.66;12921850;22;20010;-88
2022/11/16 00:54:38;;;;;;;20.35;12.85;;;;;;;8.68;100.00;99879.53;12926760;22;20003;-88
2022/11/16 00:59:39;;;;;;;23.17;12.63;;;;;;;9.66;100.00;100044.78;12929849;22;20019;-87
2022/11/16 01:04:39;;;;;;;24.48;12.93;;;;;;;9.68;100.00;100026.91;12952193;22;20027;-88
2022/11/16 01:09:40;;;;;;;19.45;13.32;;;;;;;8.83;100.00;99867.81;12926917;22;20011;-89
2022/11/16 01:14:42;;;;;;;20.17;13.02;;;;;;;8.43;100.00;99802.56;12948983;22;20004;-88
2022/11/16 01:19:42;;;;;;;16.42;11.15;;;;;;;8.54;100.00;99804.28;12925798;22;20026;-88
2022/11/16 01:24:45;;;;;;;19.73;12.30;;;;;;;7.99;100.00;99715.13;12953475;22;20016;-89
2022/11/16 01:29:47;;;;;;;16.63;11.07;;;;;;;8.93;100.00;99828.63;12922019;22;20016;-88
2022/11/16 01:34:48;;;;;;;15.18;10.48;;;;;;;8.31;100.00;99744.34;12921341;22;20054;-88
2022/11/16 01:39:49;;;;;;;14.57;10.25;;;;;;;8.60;100.00;99785.91;12923224;22;20053;-90
2022/11/16 01:44:57;;;;;;;17.48;10.07;;;;;;;8.74;100.00;99775.28;12924787;22;20334;-89
2022/11/16 01:50:05;;;;;;;13.77;9.68;;;;;;;9.32;100.00;99899.56;12923387;22;20494;-88
2022/11/16 01:55:06;;;;;;;13.23;8.73;;;;;;;9.20;100.00;99866.00;12922680;22;20315;-88
2022/11/16 02:00:08;;;;;;;13.77;9.00;;;;;;;9.09;100.00;99844.03;12923585;22;20000;-89
2022/11/16 02:05:09;;;;;;;14.63;9.18;;;;;;;8.17;100.00;99686.44;12923774;22;20015;-89
2022/11/16 02:10:20;;;;;;;14.52;9.10;;;;;;;9.35;100.00;99832.28;12920945;22;20015;-90
2022/11/16 02:15:25;;;;;;;16.15;9.20;;;;;;;8.71;100.00;99751.13;12972110;22;20003;-89
2022/11/16 02:20:43;;;;;;;13.57;9.43;;;;;;;9.46;100.00;99843.00;12971826;22;20321;-87
2022/11/16 02:26:01;;;;;;;13.23;9.32;;;;;;;8.57;100.00;99743.38;12945835;22;20067;-89
2022/11/16 02:31:02;;;;;;;14.77;9.32;;;;;;;9.86;100.00;99901.88;12971160;22;20004;-88
2022/11/16 02:36:05;;;;;;;16.90;10.05;;;;;;;8.25;100.00;99692.22;12917380;22;20020;-88
2022/11/16 02:41:10;;;;;;;15.05;9.75;;;;;;;9.06;100.00;99784.16;12927323;22;20000;-88
2022/11/16 02:46:15;;;;;;;16.92;9.65;;;;;;;8.68;100.00;99736.88;12937278;22;20011;-89
2022/11/16 02:51:16;;;;;;;15.77;10.32;;;;;;;8.29;100.00;99679.63;12919451;22;20079;-89
2022/11/16 02:56:17;;;;;;;14.05;10.52;;;;;;;9.11;100.00;99807.25;12914463;22;20015;-89
2022/11/16 03:01:21;;;;;;;15.10;10.25;;;;;;;9.80;100.00;99919.47;12921708;22;20015;-89
2022/11/16 03:06:32;;;;;;;17.25;10.82;;;;;;;8.74;100.00;99731.38;12917087;22;20007;-89
2022/11/16 03:16:55;;;;;;;17.55;11.25;;;;;;;8.31;100.00;99684.00;12944557;22;20012;-89
2022/11/16 03:21:59;;;;;;;17.55;11.43;;;;;;;9.70;100.00;99903.78;12938598;22;20449;-89
2022/11/16 03:27:12;;;;;;;19.27;11.65;;;;;;;9.43;100.00;99853.75;12913188;22;20448;-88
2022/11/16 03:32:48;;;;;;;19.33;11.88;;;;;;;9.72;100.00;99891.72;12964587;22;20326;-89
2022/11/16 03:37:49;;;;;;;17.02;12.07;;;;;;;8.11;100.00;99663.66;12929738;22;20341;-89
2022/11/16 03:42:50;;;;;;;21.00;12.38;;;;;;;8.47;100.00;99703.06;12915293;22;20019;-89
2022/11/16 03:47:50;;;;;;;22.60;13.75;;;;;;;8.26;100.00;99662.91;12913883;22;20010;-89
2022/11/16 03:52:51;;;;;;;19.98;12.48;;;;;;;9.29;100.00;99814.97;12918562;22;20141;-89
2022/11/16 03:57:51;;;;;;;23.85;13.90;;;;;;;8.52;100.00;99663.84;12914575;22;20418;-90
2022/11/16 04:02:52;;;;;;;26.48;15.85;;;;;;;9.68;100.00;99861.19;12916261;22;20046;-89
2022/11/16 04:29:09;;;;;;;28.30;16.60;;;;;;;8.75;100.00;99697.38;12949944;22;20011;-88
2022/11/16 04:39:29;;;;;;;32.53;19.05;;;;;;;8.10;100.00;99604.44;12952593;22;20003;-88
2022/11/16 04:49:52;;;;;;;36.75;19.92;;;;;;;8.91;100.00;99745.72;12929622;22;20019;-89
2022/11/16 04:54:53;;;;;;;35.50;20.60;;;;;;;8.21;100.00;99638.22;12917544;22;20042;-90
2022/11/16 04:59:54;;;;;;;36.78;21.60;;;;;;;7.87;100.00;99562.72;12900603;22;20000;-89
2022/11/16 05:04:55;;;;;;;35.92;22.42;;;;;;;8.44;100.00;99656.13;12903291;22;20023;-90
2022/11/16 05:09:55;;;;;;;42.22;21.65;;;;;;;8.89;100.00;99754.22;12888620;22;20010;-89
2022/11/16 05:14:56;;;;;;;40.20;22.23;;;;;;;9.06;100.00;99777.84;12945742;22;20074;-89
2022/11/16 05:25:19;;;;;;;42.53;24.25;;;;;;;7.98;100.00;99601.09;12924835;22;20113;-89
2022/11/16 05:30:20;;;;;;;39.08;22.58;;;;;;;9.23;100.00;99766.63;12946072;22;20030;-89
2022/11/16 05:35:21;;;;;;;38.88;22.17;;;;;;;7.43;100.00;99489.13;12924529;22;20102;-88
2022/11/16 05:40:22;;;;;;;40.20;22.52;;;;;;;8.78;100.00;99727.81;12894984;22;20069;-89
2022/11/16 05:45:22;;;;;;;43.65;22.55;;;;;;;9.28;100.00;99802.31;12902662;22;20015;-89
2022/11/16 05:50:26;;;;;;;42.75;22.60;;;;;;;8.35;100.00;99668.69;12901063;22;20010;-89
2022/11/16 05:55:26;;;;;;;39.22;22.70;;;;;;;9.15;100.00;99761.66;12928913;22;19998;-89
2022/11/16 06:00:30;;;;;;;37.80;21.15;;;;;;;7.87;100.00;99587.38;12945122;22;20016;-90
2022/11/16 06:05:33;;;;;;;36.55;21.83;;;;;;;8.73;100.00;99749.75;12908095;22;21423;-90
2022/11/16 06:10:35;;;;;;;39.55;21.80;;;;;;;8.30;100.00;99694.16;12918763;22;20008;-89
2022/11/16 06:15:37;;;;;;;39.33;21.40;;;;;;;8.31;100.00;99662.94;12889010;22;20516;-90
2022/11/16 06:20:38;;;;;;;37.83;21.92;;;;;;;8.48;100.00;99701.13;12895391;22;20424;-89
2022/11/16 06:25:39;;;;;;;41.97;22.38;;;;;;;8.83;100.00;99779.16;12921390;22;20016;-89
2022/11/16 06:30:40;;;;;;;38.47;21.85;;;;;;;8.61;100.00;99758.22;12916777;22;20058;-87
2022/11/16 06:35:41;;;;;;;36.03;22.20;;;;;;;9.19;100.00;99812.19;12912875;22;20015;-88
2022/11/16 06:40:41;;;;;;;39.90;22.58;;;;;;;8.19;100.00;99671.38;12921085;22;20003;-89
2022/11/16 06:45:42;;;;;;;41.60;25.42;;;;;;;8.54;100.00;99763.16;12912477;22;20417;-89
2022/11/16 06:50:46;;;;;;;41.50;24.17;;;;;;;8.85;100.00;99820.91;12891521;22;22445;-88
2022/11/16 06:55:47;;;;;;;38.28;24.42;;;;;;;8.34;100.00;99735.59;12907797;22;20311;-89
2022/11/16 07:00:47;;;;;;;45.13;27.13;;;;;;;8.25;100.00;99714.16;12903206;22;20082;-88
2022/11/16 07:05:48;;;;;;;49.78;27.63;;;;;;;9.61;100.00;99976.03;12908003;22;20007;-88
2022/11/16 07:10:49;;;;;;;50.35;27.25;;;;;;;9.08;100.00;99858.03;12916081;22;20054;-88
2022/11/16 07:15:49;;;;;;;52.22;27.92;;;;;;;8.88;100.00;99843.13;12892334;22;20007;-89
2022/11/16 07:20:51;;;;;;;49.53;27.40;;;;;;;8.42;100.00;99743.34;12908746;22;20061;-89
2022/11/16 07:25:52;;;;;;;49.80;28.35;;;;;;;7.43;100.00;99620.56;12912010;22;20050;-89
2022/11/16 07:30:54;;;;;;;53.65;29.17;;;;;;;7.86;100.00;99675.31;12879237;22;20000;-88
2022/11/16 07:36:02;;;;;;;57.35;29.45;;;;;;;8.99;100.00;99855.00;12918841;22;20106;-89
2022/11/16 07:41:06;;;;;;;52.58;30.15;;;;;;;9.68;100.00;99957.38;12974940;22;20007;-89
2022/11/16 07:46:09;;;;;;;51.97;29.58;;;;;;;9.68;100.00;99993.09;12921210;22;20012;-89
2022/11/16 07:51:14;;;;;;;51.75;29.95;;;;;;;8.51;100.00;99801.25;12892759;22;20401;-90
2022/11/16 07:56:14;;;;;;;61.03;30.17;;;;;;;9.02;100.00;99905.78;12916821;22;20008;-89
2022/11/16 08:01:16;;;;;;;55.20;31.02;;;;;;;8.45;100.00;99814.97;12913407;22;20058;-90
2022/11/16 08:06:18;;;;;;;50.22;27.83;;;;;;;9.65;100.00;99972.50;12914430;22;20007;-90
2022/11/16 08:11:18;;;;;;;46.30;27.08;;;;;;;8.82;100.00;99857.09;12890400;22;20374;-91
2022/11/16 08:16:20;;;;;;;49.78;28.00;;;;;;;8.81;100.00;99889.22;12916093;22;20038;-89
2022/11/16 08:21:20;;;;;;;47.83;27.13;;;;;;;9.11;100.00;99969.25;12914233;22;20422;-87
2022/11/16 08:26:21;;;;;;;48.55;26.88;;;;;;;8.60;100.00;99863.59;12914509;22;20014;-89
2022/11/16 08:31:26;;;;;;;48.10;25.98;;;;;;;8.81;100.00;99893.88;12939774;22;20004;-89
2022/11/16 08:36:27;;;;;;;43.67;26.25;;;;;;;8.66;100.00;99889.13;12914949;22;20023;-90
2022/11/16 08:41:28;;;;;;;46.05;25.52;;;;;;;9.12;100.00;99924.22;12914650;22;20035;-91
2022/11/16 08:46:28;;;;;;;42.95;26.75;;;;;;;8.01;100.00;99756.81;12940182;22;20011;-90
2022/11/16 08:51:29;;;;;;;46.03;26.70;;;;;;;9.31;100.00;99996.81;12914038;22;20027;-91
2022/11/16 08:56:29;;;;;;;46.42;27.67;;;;;;;9.25;100.00;99979.47;12913092;22;20318;-90
2022/11/16 09:01:31;;;;;;;52.67;29.30;;;;;;;8.62;100.00;99833.97;12910254;22;20008;-90
2022/11/16 09:06:31;;;;;;;60.85;29.80;;;;;;;8.06;100.00;99762.31;12918193;22;20325;-90
2022/11/16 09:11:32;;;;;;;53.97;29.40;;;;;;;9.42;100.00;99967.44;12921807;22;20035;-89
2022/11/16 09:16:32;;;;;;;53.35;28.27;;;;;;;8.79;100.00;99874.94;12928200;22;20011;-91
2022/11/16 09:21:35;;;;;;;60.63;29.05;;;;;;;9.43;100.00;99980.94;12922217;22;20098;-88
2022/11/16 09:26:35;;;;;;;51.25;29.00;;;;;;;9.43;100.00;99956.19;12969585;22;20034;-88
2022/11/16 09:31:36;;;;;;;58.05;29.33;;;;;;;9.28;100.00;99940.50;12967366;22;20494;-84
2022/11/16 09:36:36;;;;;;;56.63;27.80;;;;;;;8.02;100.00;99737.38;12919167;22;20004;-85
2022/11/16 09:42:06;;;;;;;46.45;26.40;;;;;;;10.22;100.00;100064.19;12941853;22;20026;-85
2022/11/16 09:47:10;;;;;;;47.67;27.88;;;;;;;9.45;100.00;99975.16;12966824;22;20459;-85
2022/11/16 09:52:25;;;;;;;54.33;28.10;;;;;;;9.84;100.00;99994.81;12918284;22;20008;-85
2022/11/16 09:57:32;;;;;;;48.10;27.65;;;;;;;9.94;100.00;99995.91;12940220;22;20011;-85
2022/11/16 10:02:44;;;;;;;52.28;27.88;;;;;;;9.61;100.00;99926.56;12967133;22;20137;-85
2022/11/16 10:07:47;;;;;;;49.22;27.33;;;;;;;9.89;100.00;99942.56;12967072;22;20057;-86
2022/11/16 10:12:50;;;;;;;48.45;27.48;;;;;;;10.22;100.00;99987.16;12942305;22;20028;-85
2022/11/16 10:18:21;;;;;;;43.42;25.17;;;;;;;10.83;100.00;100070.88;12942639;22;20053;-85
2022/11/16 10:23:45;;;;;;;45.45;26.77;;;;;;;10.74;100.00;100061.53;12941104;22;20072;-85
2022/11/16 10:28:48;;;;;;;44.17;26.23;;;;;;;11.05;100.00;100076.91;12943211;22;20004;-84
2022/11/16 10:33:49;;;;;;;46.10;25.85;;;;;;;9.05;100.00;99774.28;12967334;22;20022;-84
2022/11/16 10:38:50;;;;;;;40.75;25.17;;;;;;;9.08;100.00;99757.25;12915715;22;20004;-84
2022/11/16 10:43:50;;;;;;;37.58;24.17;;;;;;;10.03;100.00;99917.31;12966863;22;20032;-85
2022/11/16 10:48:54;;;;;;;34.17;24.50;;;;;;;11.00;100.00;100068.69;12903540;22;20446;-84
2022/11/16 10:53:55;;;;;;;37.33;23.98;;;;;;;10.30;100.00;100002.34;12964695;22;20035;-84
2022/11/16 10:58:58;;;;;;;40.42;23.88;;;;;;;10.00;100.00;99972.84;12914263;22;20446;-84
2022/11/16 11:04:14;;;;;;;46.17;25.83;;;;;;;10.95;100.00;100076.94;12943726;22;20011;-84
2022/11/16 11:09:24;;;;;;;41.55;25.80;;;;;;;11.31;100.00;100080.47;12971907;22;20079;-84
2022/11/16 11:14:25;;;;;;;43.10;24.08;;;;;;;10.70;100.00;99975.91;12944327;22;20086;-85
2022/11/16 11:19:26;;;;;;;35.90;23.55;;;;;;;10.97;100.00;99948.03;12916312;22;20035;-84
2022/11/16 11:24:27;;;;;;;30.83;21.42;;;;;;;11.10;100.00;99930.94;12910828;22;20389;-84
2022/11/16 11:29:33;;;;;;;24.23;17.50;;;;;;;10.41;100.00;99843.56;12913438;22;20003;-85
2022/11/16 11:34:38;;;;;;;21.77;17.23;;;;;;;11.06;100.00;99971.16;12938693;22;20023;-86
2022/11/16 11:39:39;;;;;;;28.10;16.35;;;;;;;11.20;100.00;99984.34;12913722;22;20429;-86
2022/11/16 11:44:46;;;;;;;22.02;15.70;;;;;;;11.66;100.00;100053.09;12914377;22;20011;-86
2022/11/16 11:49:51;;;;;;;21.77;15.80;;;;;;;10.09;100.00;99863.94;12963966;22;20019;-85
2022/11/16 11:54:51;;;;;;;23.85;14.93;;;;;;;10.71;100.00;99930.78;12913877;22;20007;-87
2022/11/16 11:59:52;;;;;;;24.25;15.82;;;;;;;10.45;100.00;99870.25;12913337;22;20016;-86
2022/11/16 12:05:11;;;;;;;29.38;15.35;;;;;;;11.36;100.00;100030.03;12913248;22;20048;-86
2022/11/16 12:10:38;;;;;;;26.73;14.77;;;;;;;10.15;100.00;99812.50;12964200;22;20326;-85
2022/11/16 12:15:58;;;;;;;;;;;;;;;11.89;100.00;100048.88;12943484;22;20027;-86
2022/11/16 12:21:08;;;;;;;18.50;9.18;;;;;;;11.71;100.00;100000.66;12964878;22;19899;-86
2022/11/16 12:26:20;;;;;;;13.10;8.18;;;;;;;11.74;100.00;99980.81;12938147;22;20507;-85
2022/11/16 12:31:32;;;;;;;13.98;7.57;;;;;;;12.42;100.00;100037.25;12942420;22;20003;-85
2022/11/16 12:36:43;;;;;;;13.80;7.38;;;;;;;12.32;100.00;99917.53;12971879;22;20028;-86
2022/11/16 12:41:46;;;;;;;10.30;5.63;;;;;;;13.74;100.00;100017.72;12963128;22;20043;-86
2022/11/16 12:47:00;;;;;;;10.88;4.55;;;;;;;13.10;100.00;99878.88;12966415;22;20080;-86
2022/11/16 12:52:19;;;;;;;13.23;7.20;;;;;;;14.23;100.00;99941.72;12969040;22;19999;-83
2022/11/16 12:57:33;;;;;;;12.25;5.78;;;;;;;12.90;100.00;99742.66;12941616;22;20503;-86
2022/11/16 13:02:58;;;;;;;10.48;3.72;;;;;;;15.38;100.00;100006.78;12942849;22;20012;-86
2022/11/16 13:08:06;;;;;;;6.80;3.50;;;;;;;13.51;100.00;99727.09;12966800;22;20083;-87
2022/11/16 13:13:12;;;;;;;9.00;3.13;;;;;;;14.25;100.00;99803.84;12919641;22;20418;-86
2022/11/16 13:18:15;;;;;;;6.15;2.53;;;;;;;15.76;100.00;100012.13;12904635;22;20318;-87
2022/11/16 13:23:17;;;;;;;8.80;2.67;;;;;;;15.57;100.00;100000.31;12916671;22;20026;-86
2022/11/16 13:28:49;;;;;;;6.07;2.42;;;;;;;13.55;100.00;99850.94;12941755;22;20434;-86
2022/11/16 13:33:56;;;;;;;7.13;2.33;;;;;;;13.22;100.00;99862.69;12944538;22;20016;-86
2022/11/16 13:38:57;;;;;;;9.20;3.65;;;;;;;13.24;100.00;99920.44;12916066;22;20039;-86
2022/11/16 13:43:58;;;;;;;10.20;2.70;;;;;;;13.25;100.00;99944.19;12914649;22;20020;-86
2022/11/16 13:48:58;;;;;;;8.50;2.83;;;;;;;12.28;100.00;99838.38;12914943;22;20008;-86
2022/11/16 13:53:59;;;;;;;8.80;2.17;;;;;;;11.48;100.00;99749.41;12917123;22;20004;-86
2022/11/16 13:58:59;;;;;;;8.75;2.90;;;;;;;11.75;100.00;99866.63;12941785;22;19996;-86
2022/11/16 14:04:37;;;;;;;9.77;2.53;;;;;;;12.49;100.00;100004.63;12924064;22;20026;-86
2022/11/16 14:09:56;;;;;;;8.00;2.63;;;;;;;10.50;100.00;99751.94;12960289;22;19999;-86
2022/11/16 14:15:15;;;;;;;8.52;3.53;;;;;;;12.38;100.00;100000.28;12916118;22;20083;-86
2022/11/16 14:20:36;;;;;;;8.43;3.95;;;;;;;12.04;100.00;99893.50;12940454;22;19999;-86
2022/11/16 14:25:44;;;;;;;13.00;4.22;;;;;;;11.39;100.00;99767.69;12939620;22;20040;-86
2022/11/16 14:31:12;;;;;;;17.63;4.70;;;;;;;11.66;100.00;99771.88;12925856;22;20012;-87
2022/11/16 14:36:13;;;;;;;11.77;5.72;;;;;;;12.08;100.00;99889.03;12932028;22;20023;-87
2022/11/16 14:41:20;;;;;;;10.13;4.55;;;;;;;10.85;100.00;99674.94;12917016;22;20083;-87
2022/11/16 14:46:24;;;;;;;6.45;3.55;;;;;;;10.87;100.00;99708.50;12940608;22;20020;-87
2022/11/16 14:51:30;;;;;;;11.10;3.60;;;;;;;10.93;100.00;99758.88;12915941;22;20024;-87
2022/11/16 14:56:31;;;;;;;12.60;5.03;;;;;;;11.59;100.00;99942.28;12964266;22;20003;-87
2022/11/16 15:01:37;;;;;;;15.45;6.60;;;;;;;11.77;100.00;100049.19;12939070;22;20230;-87
2022/11/16 15:06:48;;;;;;;11.53;6.10;;;;;;;9.70;100.00;99714.16;12901708;22;20027;-87
2022/11/16 15:17:14;;;;;;;14.95;8.00;;;;;;;10.14;100.00;99844.69;12947070;22;20106;-87
2022/11/16 15:22:16;;;;;;;16.13;7.87;;;;;;;9.83;100.00;99830.94;12923319;22;20110;-87
2022/11/16 15:27:36;;;;;;;17.83;8.18;;;;;;;10.68;100.00;99989.94;12912809;22;20619;-87
2022/11/16 15:32:42;;;;;;;20.65;10.15;;;;;;;9.86;100.00;99940.38;12940465;22;20042;-87
2022/11/16 15:37:43;;;;;;;14.02;9.05;;;;;;;8.52;100.00;99718.69;12925550;22;20022;-87
2022/11/16 15:42:43;;;;;;;18.30;9.98;;;;;;;8.91;100.00;99838.19;12913754;22;20090;-87
2022/11/16 15:47:45;;;;;;;19.20;12.02;;;;;;;9.53;100.00;99924.34;12904882;22;20007;-87
2022/11/16 15:52:49;;;;;;;24.33;12.63;;;;;;;8.51;100.00;99832.25;12917873;22;20511;-87
2022/11/16 15:57:58;;;;;;;21.20;12.68;;;;;;;7.67;100.00;99725.06;12914402;22;20004;-87
2022/11/16 16:03:25;;;;;;;24.92;13.60;;;;;;;9.36;100.00;100017.97;12964534;22;20023;-87
2022/11/16 16:08:35;;;;;;;27.10;15.15;;;;;;;9.11;100.00;99963.75;12960046;22;20418;-87
2022/11/16 16:13:40;;;;;;;27.88;16.63;;;;;;;9.17;100.00;100004.69;12938886;22;20074;-87
2022/11/16 16:18:42;;;;;;;28.75;16.40;;;;;;;8.26;100.00;99910.50;12925379;22;20057;-87
2022/11/16 16:23:47;;;;;;;29.83;15.80;;;;;;;8.34;100.00;99958.56;12917545;22;20023;-86
2022/11/16 16:28:48;;;;;;;33.65;17.63;;;;;;;7.42;100.00;99827.03;12917938;22;20000;-87
2022/11/16 16:33:49;;;;;;;35.10;19.58;;;;;;;7.43;100.00;99790.34;12941754;22;20354;-87
2022/11/16 16:38:49;;;;;;;33.22;18.52;;;;;;;7.59;100.00;99826.09;12917967;22;20010;-87
2022/11/16 16:43:50;;;;;;;36.30;19.55;;;;;;;7.41;100.00;99770.59;12917645;22;20070;-87
2022/11/16 16:48:50;;;;;;;32.13;18.02;;;;;;;8.41;100.00;99907.09;12918601;22;20004;-87
2022/11/16 16:53:51;;;;;;;55.00;25.83;;;;;;;7.45;100.00;99719.69;12915116;22;20421;-86
2022/11/16 16:58:51;;;;;;;70.45;38.97;;;;;;;7.86;100.00;99780.28;12948920;22;20015;-87
2022/11/16 17:03:52;;;;;;;77.85;41.17;;;;;;;9.27;100.00;100054.19;12906134;22;20342;-87
2022/11/16 17:08:52;;;;;;;69.70;39.88;;;;;;;7.31;100.00;99712.19;12942495;22;20004;-87
2022/11/16 17:13:53;;;;;;;71.53;38.53;;;;;;;8.62;100.00;99927.25;12918334;22;20007;-88
2022/11/16 17:18:54;;;;;;;77.40;41.10;;;;;;;7.19;100.00;99754.28;12931369;22;20004;-86
2022/11/16 17:23:55;;;;;;;76.72;38.90;;;;;;;7.69;100.00;99807.00;12912186;22;20437;-87
2022/11/16 17:28:56;;;;;;;78.20;39.70;;;;;;;7.61;100.00;99791.88;12913266;22;20015;-88
2022/11/16 17:33:57;;;;;;;70.88;38.58;;;;;;;7.35;100.00;99793.53;12914691;22;20110;-87
2022/11/16 17:38:57;;;;;;;74.65;40.20;;;;;;;7.71;100.00;99861.53;12941886;22;20485;-87
2022/11/16 17:43:58;;;;;;;71.40;37.17;;;;;;;7.32;100.00;99794.09;12916003;22;20016;-89
2022/11/16 17:48:58;;;;;;;73.68;37.58;;;;;;;7.77;100.00;99877.75;12919348;22;20046;-87
2022/11/16 17:53:59;;;;;;;64.55;37.13;;;;;;;7.43;100.00;99823.19;12920150;22;20003;-87
2022/11/16 17:59:00;;;;;;;69.60;37.35;;;;;;;6.64;100.00;99674.09;12915893;22;20054;-87
2022/11/16 18:04:01;;;;;;;73.55;36.90;;;;;;;7.20;100.00;99791.50;12916954;22;20012;-87
2022/11/16 18:09:01;;;;;;;70.95;37.42;;;;;;;7.08;100.00;99799.84;12919371;22;20000;-87
2022/11/16 18:14:04;;;;;;;70.30;37.45;;;;;;;7.84;100.00;99888.50;12920072;22;20008;-88
2022/11/16 18:19:05;;;;;;;72.82;35.80;;;;;;;6.69;100.00;99719.81;12922292;22;20015;-89
2022/11/16 18:24:06;;;;;;;66.10;35.65;;;;;;;6.67;100.00;99738.38;12921950;22;20061;-87
2022/11/16 18:29:08;;;;;;;72.18;35.97;;;;;;;7.74;100.00;99916.63;12921037;22;20004;-87
2022/11/16 18:34:11;;;;;;;67.88;35.97;;;;;;;6.42;100.00;99689.72;12898042;22;20502;-86
2022/11/16 18:39:12;;;;;;;66.45;34.45;;;;;;;6.87;100.00;99738.63;12907363;22;20449;-87
2022/11/16 18:44:12;;;;;;;69.10;37.42;;;;;;;7.39;100.00;99885.03;12893049;22;20019;-87
2022/11/16 18:49:14;;;;;;;63.85;34.22;;;;;;;6.38;100.00;99705.78;12892173;22;20403;-87
2022/11/16 18:54:14;;;;;;;66.72;35.28;;;;;;;6.71;100.00;99796.16;12894028;22;20011;-87
2022/11/16 18:59:15;;;;;;;71.82;37.00;;;;;;;6.72;100.00;99768.56;12924180;22;20003;-86
2022/11/16 19:04:15;;;;;;;74.25;37.45;;;;;;;7.36;100.00;99891.06;12908956;22;20039;-86
2022/11/16 19:09:16;;;;;;;60.47;33.42;;;;;;;5.77;100.00;99632.06;12932093;22;20008;-87
2022/11/16 19:14:17;;;;;;;63.45;33.08;;;;;;;6.61;100.00;99755.81;12945779;22;20004;-87
2022/11/16 19:19:17;;;;;;;77.47;37.83;;;;;;;7.89;100.00;99995.41;12903008;22;20013;-86
2022/11/16 19:24:18;;;;;;;70.13;35.17;;;;;;;6.04;100.00;99714.13;12902484;22;20425;-88
2022/11/16 19:29:18;;;;;;;65.35;34.30;;;;;;;6.13;100.00;99744.56;12889645;22;20019;-88
2022/11/16 19:34:19;;;;;;;67.20;34.55;;;;;;;5.42;100.00;99605.94;12876281;22;20473;-88
2022/11/16 19:39:19;;;;;;;66.72;34.40;;;;;;;6.16;100.00;99729.56;12905099;22;20028;-87
2022/11/16 19:44:20;;;;;;;66.45;33.13;;;;;;;7.21;100.00;99896.34;12891142;22;20012;-88
2022/11/16 19:49:21;;;;;;;73.50;35.05;;;;;;;6.36;100.00;99750.88;12888664;22;20008;-89
2022/11/16 19:54:21;;;;;;;74.85;36.75;;;;;;;6.33;100.00;99743.19;12872225;22;20368;-88
2022/11/16 19:59:22;;;;;;;69.93;34.20;;;;;;;5.97;100.00;99702.53;12887669;22;20042;-88
2022/11/16 20:04:24;;;;;;;76.32;36.30;;;;;;;6.73;100.00;99802.19;12905069;22;20042;-88
2022/11/16 20:09:25;;;;;;;77.82;36.13;;;;;;;6.27;100.00;99717.69;12867367;22;20081;-86
2022/11/16 20:14:25;;;;;;;80.80;37.30;;;;;;;6.25;100.00;99739.81;12923204;22;20025;-87
2022/11/16 20:19:26;;;;;;;65.40;33.05;;;;;;;6.25;100.00;99755.38;12881624;22;20058;-88
2022/11/16 20:24:27;;;;;;;66.32;32.40;;;;;;;6.01;100.00;99713.78;12925936;22;20453;-88
2022/11/16 20:29:27;;;;;;;66.80;32.85;;;;;;;6.51;100.00;99783.91;12863561;22;20058;-87
2022/11/16 20:34:28;;;;;;;63.65;32.03;;;;;;;6.13;100.00;99694.56;12858867;22;20401;-88
2022/11/16 20:39:28;;;;;;;60.95;29.73;;;;;;;7.37;100.00;99908.28;12912390;22;20012;-89
2022/11/16 20:44:30;;;;;;;66.68;32.35;;;;;;;5.96;100.00;99661.84;12883625;22;20072;-90
2022/11/16 20:49:30;;;;;;;63.65;32.92;;;;;;;5.88;100.00;99627.56;12874410;22;20081;-90
2022/11/16 20:54:32;;;;;;;61.17;31.05;;;;;;;4.85;100.00;99499.78;12837407;22;20014;-89
2022/11/16 20:59:35;;;;;;;63.53;30.63;;;;;;;5.31;100.00;99555.00;12843732;22;20028;-89
2022/11/16 21:04:35;;;;;;;55.88;29.38;;;;;;;5.98;100.00;99659.69;12827413;22;20023;-89
2022/11/16 21:10:17;;;;;;;61.35;30.42;;;;;;;6.25;100.00;99720.69;12848373;22;20004;-89
2022/11/16 21:14:59;;;;;;;66.78;32.17;;;;;;;5.26;100.00;99535.84;12864676;22;20012;-89
2022/11/16 21:20:02;;;;;;;63.88;32.90;;;;;;;5.92;100.00;99644.28;12855555;22;20062;-88
2022/11/16 21:25:03;;;;;;;54.97;30.63;;;;;;;5.78;100.00;99602.84;12865039;22;20012;-89
2022/11/16 21:30:06;;;;;;;59.70;30.15;;;;;;;7.06;100.00;99821.19;12862049;22;20011;-89
2022/11/16 21:35:07;;;;;;;55.25;29.73;;;;;;;5.89;100.00;99633.84;12849416;22;20019;-89
2022/11/16 21:40:08;;;;;;;55.28;28.00;;;;;;;7.11;100.00;99845.06;12817356;22;20000;-87
2022/11/16 21:45:09;;;;;;;51.67;27.23;;;;;;;5.70;100.00;99620.47;12886397;22;20450;-89
2022/11/16 21:50:12;;;;;;;53.00;28.17;;;;;;;6.22;100.00;99707.53;12845533;22;20272;-89
2022/11/16 21:55:16;;;;;;;56.75;29.95;;;;;;;7.17;100.00;99799.38;12858353;22;20087;-89
2022/11/16 22:00:20;;;;;;;50.33;27.25;;;;;;;5.78;100.00;99611.03;12872741;22;20053;-89
2022/11/16 22:10:51;;;;;;;49.78;27.20;;;;;;;5.80;100.00;99574.19;12864175;22;20004;-89
2022/11/16 22:15:52;;;;;;;48.85;25.50;;;;;;;5.74;100.00;99599.78;12855578;22;20069;-88
2022/11/16 22:20:52;;;;;;;49.00;27.67;;;;;;;5.82;100.00;99563.84;12869069;22;20326;-89
2022/11/16 22:25:59;;;;;;;43.60;25.95;;;;;;;7.03;100.00;99750.56;12805190;22;20058;-90
2022/11/16 22:31:01;;;;;;;41.22;24.20;;;;;;;5.26;100.00;99511.28;12792857;22;20015;-90
2022/11/16 22:36:04;;;;;;;42.17;24.58;;;;;;;5.19;100.00;99453.34;12719673;22;20056;-88
2022/11/16 22:41:05;;;;;;;41.20;23.48;;;;;;;5.74;100.00;99534.25;12806438;22;20009;-90
2022/11/16 22:46:06;;;;;;;38.97;23.27;;;;;;;5.25;100.00;99472.25;12853985;22;20030;-89
2022/11/16 22:58:32;;;;;;;37.80;22.10;;;;;;;5.20;100.00;99423.06;12324211;23;20050;-90
2022/11/16 23:04:08;;;;;;;31.40;19.60;;;;;;;5.29;100.00;99409.78;12145860;24;20018;-88
2022/11/16 23:15:47;;;;;;;27.98;19.17;;;;;;;4.94;100.00;99344.72;12150188;24;20014;-90
2022/11/16 23:16:53;;;;;;;32.78;17.42;;;;;;;7.00;100.00;99660.75;12027590;24;20025;-89
2022/11/16 23:28:38;;;;;;;21.10;14.15;;;;;;;7.00;100.00;99636.13;12255214;23;20058;-89
2022/11/16 23:34:32;;;;;;;;;;;;;;;;;;;;;
2022/11/16 23:40:03;;;;;;;23.63;14.68;;;;;;;5.61;100.00;99422.72;12319418;23;20047;-89
2022/11/16 23:45:23;;;;;;;22.98;15.30;;;;;;;5.35;100.00;99365.09;12670176;23;20374;-91
2022/11/16 23:50:24;;;;;;;22.35;15.32;;;;;;;6.19;100.00;99481.19;12856560;22;20086;-91
2022/11/16 23:55:25;;;;;;;17.08;13.75;;;;;;;6.17;100.00;99477.91;12870943;22;20523;-90
